createdAt,value
2018-03-26T00:01:43.518Z,48.10
2018-03-26T00:04:09.578Z,48.19
2018-03-26T00:06:35.519Z,47.96
2018-03-26T00:09:01.466Z,48.19
2018-03-26T00:11:27.402Z,48.21
2018-03-26T00:13:53.349Z,48.17
2018-03-26T00:16:19.294Z,48.28
2018-03-26T00:18:45.253Z,48.00
2018-03-26T00:21:11.202Z,48.25
2018-03-26T00:23:37.122Z,48.57
2018-03-26T00:26:03.062Z,48.28
2018-03-26T00:28:29.039Z,48.40
2018-03-26T00:30:54.966Z,48.42
2018-03-26T00:33:20.941Z,48.36
2018-03-26T00:35:46.896Z,48.38
2018-03-26T00:38:12.866Z,48.54
2018-03-26T00:40:38.797Z,48.62
2018-03-26T00:43:04.774Z,48.34
2018-03-26T00:45:30.778Z,48.24
2018-03-26T00:47:56.732Z,48.27
2018-03-26T00:50:22.685Z,48.49
2018-03-26T00:52:48.653Z,48.40
2018-03-26T00:55:14.617Z,48.42
2018-03-26T00:57:40.610Z,48.19
2018-03-26T01:00:06.553Z,48.59
2018-03-26T01:02:32.618Z,48.42
2018-03-26T01:04:58.571Z,48.42
2018-03-26T01:07:24.522Z,48.28
2018-03-26T01:09:50.473Z,48.43
2018-03-26T01:12:16.411Z,48.34
2018-03-26T01:14:42.398Z,48.62
2018-03-26T01:17:08.337Z,48.60
2018-03-26T01:19:34.273Z,48.67
2018-03-26T01:22:00.215Z,48.80
2018-03-26T01:24:26.164Z,48.53
2018-03-26T01:26:52.111Z,48.54
2018-03-26T01:29:18.061Z,48.68
2018-03-26T01:31:44.017Z,48.68
2018-03-26T01:34:09.974Z,48.58
2018-03-26T01:36:35.922Z,48.68
2018-03-26T01:39:01.963Z,48.38
2018-03-26T01:41:27.885Z,48.41
2018-03-26T01:43:53.842Z,48.46
2018-03-26T01:46:19.801Z,48.44
2018-03-26T01:48:45.757Z,48.57
2018-03-26T01:51:11.693Z,48.47
2018-03-26T01:53:37.641Z,48.63
2018-03-26T01:56:03.579Z,48.74
2018-03-26T01:58:29.519Z,48.49
2018-03-26T02:00:55.453Z,48.64
2018-03-26T02:03:21.401Z,48.67
2018-03-26T02:05:47.338Z,48.46
2018-03-26T02:08:13.305Z,48.88
2018-03-26T02:10:39.280Z,48.83
2018-03-26T02:13:05.300Z,48.75
2018-03-26T02:15:31.322Z,48.95
2018-03-26T02:17:57.261Z,48.74
2018-03-26T02:20:23.197Z,48.70
2018-03-26T02:22:49.280Z,48.51
2018-03-26T02:25:15.217Z,48.70
2018-03-26T02:27:41.161Z,48.42
2018-03-26T02:30:07.133Z,48.45
2018-03-26T02:32:33.070Z,48.59
2018-03-26T02:34:59.012Z,48.54
2018-03-26T02:37:25.033Z,48.49
2018-03-26T02:39:51.002Z,48.62
2018-03-26T02:42:16.970Z,48.78
2018-03-26T02:44:43.006Z,48.54
2018-03-26T02:47:08.957Z,48.29
2018-03-26T02:49:34.918Z,48.73
2018-03-26T02:52:00.878Z,48.76
2018-03-26T02:54:26.850Z,49.03
2018-03-26T02:56:52.808Z,48.84
2018-03-26T02:59:18.820Z,48.92
2018-03-26T03:01:44.768Z,49.34
2018-03-26T03:04:10.720Z,49.18
2018-03-26T03:06:36.710Z,48.94
2018-03-26T03:09:02.709Z,48.88
2018-03-26T03:11:28.645Z,48.70
2018-03-26T03:13:54.609Z,48.85
2018-03-26T03:16:20.637Z,48.80
2018-03-26T03:18:46.574Z,48.95
2018-03-26T03:21:12.525Z,48.64
2018-03-26T03:23:38.489Z,48.71
2018-03-26T03:26:04.434Z,48.69
2018-03-26T03:28:30.365Z,48.85
2018-03-26T03:30:56.333Z,48.60
2018-03-26T03:33:22.278Z,48.46
2018-03-26T03:35:48.222Z,48.15
2018-03-26T03:38:14.166Z,47.86
2018-03-26T03:40:40.130Z,47.60
2018-03-26T03:43:06.115Z,47.59
2018-03-26T03:45:32.050Z,47.53
2018-03-26T03:47:57.985Z,47.50
2018-03-26T03:50:24.022Z,47.62
2018-03-26T03:52:49.970Z,47.49
2018-03-26T03:55:15.902Z,47.53
2018-03-26T03:57:41.925Z,47.52
2018-03-26T04:00:07.883Z,47.45
2018-03-26T04:02:33.819Z,47.49
2018-03-26T04:04:59.861Z,47.61
2018-03-26T04:07:25.809Z,47.63
2018-03-26T04:09:51.753Z,47.41
2018-03-26T04:12:17.722Z,47.46
2018-03-26T04:14:43.654Z,47.49
2018-03-26T04:17:09.594Z,47.59
2018-03-26T04:19:35.531Z,47.50
2018-03-26T04:22:01.461Z,47.65
2018-03-26T04:24:27.430Z,47.64
2018-03-26T04:26:53.369Z,47.70
2018-03-26T04:29:19.320Z,47.71
2018-03-26T04:31:45.329Z,47.79
2018-03-26T04:34:11.274Z,47.81
2018-03-26T04:36:37.214Z,47.89
2018-03-26T04:39:03.157Z,47.83
2018-03-26T04:41:29.126Z,47.88
2018-03-26T04:43:55.074Z,47.80
2018-03-26T04:46:21.058Z,47.87
2018-03-26T04:48:46.988Z,47.82
2018-03-26T04:51:12.933Z,47.84
2018-03-26T04:53:38.865Z,47.77
2018-03-26T04:56:04.817Z,47.83
2018-03-26T04:58:30.770Z,47.86
2018-03-26T05:00:56.704Z,47.73
2018-03-26T05:03:22.641Z,47.67
2018-03-26T05:05:48.574Z,47.84
2018-03-26T05:08:14.534Z,47.87
2018-03-26T05:10:40.478Z,47.81
2018-03-26T05:13:06.462Z,47.73
2018-03-26T05:15:32.396Z,47.92
2018-03-26T05:17:58.394Z,47.80
2018-03-26T05:20:24.338Z,47.86
2018-03-26T05:22:50.278Z,47.91
2018-03-26T05:25:16.218Z,47.89
2018-03-26T05:27:42.177Z,47.83
2018-03-26T05:30:08.110Z,47.97
2018-03-26T05:32:34.061Z,47.82
2018-03-26T05:35:00.050Z,47.74
2018-03-26T05:37:26.026Z,47.74
2018-03-26T05:39:51.973Z,47.71
2018-03-26T05:42:17.976Z,47.84
2018-03-26T05:44:43.932Z,47.70
2018-03-26T05:47:09.864Z,47.69
2018-03-26T05:49:35.890Z,47.44
2018-03-26T05:52:01.844Z,47.71
2018-03-26T05:54:27.806Z,47.59
2018-03-26T05:56:53.849Z,47.54
2018-03-26T05:59:19.805Z,47.47
2018-03-26T06:01:45.801Z,47.66
2018-03-26T06:04:11.828Z,47.46
2018-03-26T06:06:37.881Z,47.55
2018-03-26T06:09:03.805Z,47.46
2018-03-26T06:11:29.742Z,47.59
2018-03-26T06:13:55.749Z,47.60
2018-03-26T06:16:21.690Z,47.40
2018-03-26T06:18:47.689Z,47.61
2018-03-26T06:21:13.621Z,47.50
2018-03-26T06:23:39.650Z,47.51
2018-03-26T06:26:05.618Z,47.37
2018-03-26T06:28:31.550Z,47.44
2018-03-26T06:30:57.490Z,47.24
2018-03-26T06:33:23.454Z,47.34
2018-03-26T06:35:49.398Z,47.38
2018-03-26T06:38:15.350Z,47.24
2018-03-26T06:40:41.444Z,47.45
2018-03-26T06:43:07.430Z,47.11
2018-03-26T06:45:33.379Z,47.31
2018-03-26T06:47:59.329Z,47.35
2018-03-26T06:50:25.274Z,47.51
2018-03-26T06:52:51.222Z,48.58
2018-03-26T06:55:17.197Z,48.07
2018-03-26T06:57:43.178Z,47.94
2018-03-26T07:00:09.131Z,47.91
2018-03-26T07:02:35.162Z,47.68
2018-03-26T07:05:01.122Z,47.89
2018-03-26T07:07:27.067Z,47.87
2018-03-26T07:09:53.185Z,48.03
2018-03-26T07:12:19.535Z,48.16
2018-03-26T07:14:45.465Z,48.21
2018-03-26T07:17:11.398Z,48.22
2018-03-26T07:19:37.354Z,48.20
2018-03-26T07:22:03.297Z,48.04
2018-03-26T07:24:29.235Z,47.95
2018-03-26T07:26:55.197Z,48.01
2018-03-26T07:29:21.146Z,47.96
2018-03-26T07:31:47.105Z,49.13
2018-03-26T07:34:13.057Z,48.82
2018-03-26T07:36:39.086Z,48.76
2018-03-26T07:39:05.034Z,48.34
2018-03-26T07:41:31.066Z,48.44
2018-03-26T07:43:57.026Z,48.34
2018-03-26T07:46:22.966Z,48.43
2018-03-26T07:48:48.947Z,48.35
2018-03-26T07:51:14.920Z,48.44
2018-03-26T07:53:40.873Z,48.28
2018-03-26T07:56:06.830Z,48.34
2018-03-26T07:58:32.770Z,48.43
2018-03-26T08:00:58.761Z,48.29
2018-03-26T08:03:24.780Z,48.42
2018-03-26T08:05:50.749Z,48.55
2018-03-26T08:08:16.690Z,48.63
2018-03-26T08:10:42.663Z,48.49
2018-03-26T08:13:08.605Z,48.45
2018-03-26T08:15:34.546Z,48.44
2018-03-26T08:18:00.579Z,48.26
2018-03-26T08:20:26.529Z,48.35
2018-03-26T08:22:52.485Z,48.40
2018-03-26T08:25:18.407Z,48.25
2018-03-26T08:27:44.341Z,48.21
2018-03-26T08:30:10.286Z,48.44
2018-03-26T08:32:36.253Z,48.24
2018-03-26T08:35:02.215Z,48.44
2018-03-26T08:37:28.176Z,48.21
2018-03-26T08:39:54.128Z,48.28
2018-03-26T08:42:20.157Z,48.39
2018-03-26T08:44:46.020Z,48.55
2018-03-26T08:47:11.960Z,48.51
2018-03-26T08:49:38.014Z,48.44
2018-03-26T08:52:03.973Z,48.63
2018-03-26T08:54:29.980Z,48.33
2018-03-26T08:56:55.917Z,48.73
2018-03-26T08:59:21.943Z,48.62
2018-03-26T09:01:47.888Z,48.42
2018-03-26T09:04:13.829Z,48.41
2018-03-26T09:06:39.804Z,48.42
2018-03-26T09:09:05.746Z,48.46
2018-03-26T09:11:31.761Z,48.40
2018-03-26T09:13:57.792Z,48.51
2018-03-26T09:16:23.822Z,48.58
2018-03-26T09:18:49.785Z,48.58
2018-03-26T09:21:15.742Z,48.62
2018-03-26T09:23:41.704Z,48.49
2018-03-26T09:26:07.695Z,48.45
2018-03-26T09:28:33.603Z,48.37
2018-03-26T09:30:59.606Z,48.36
2018-03-26T09:33:25.533Z,48.34
2018-03-26T09:35:51.494Z,48.52
2018-03-26T09:38:17.544Z,48.29
2018-03-26T09:40:43.528Z,48.54
2018-03-26T09:43:09.470Z,48.36
2018-03-26T09:45:35.422Z,48.28
2018-03-26T09:48:01.369Z,48.29
2018-03-26T09:50:27.310Z,48.37
2018-03-26T09:52:53.267Z,48.23
2018-03-26T09:55:19.218Z,48.32
2018-03-26T09:57:45.165Z,48.00
2018-03-26T10:00:11.097Z,48.11
2018-03-26T10:02:37.057Z,48.26
2018-03-26T10:05:03.013Z,48.10
2018-03-26T10:07:28.980Z,48.18
2018-03-26T10:09:54.934Z,48.20
2018-03-26T10:12:20.902Z,48.00
2018-03-26T10:14:46.841Z,48.04
2018-03-26T10:17:12.775Z,48.10
2018-03-26T10:19:38.849Z,48.10
2018-03-26T10:22:04.801Z,48.10
2018-03-26T10:24:30.743Z,48.16
2018-03-26T10:26:56.725Z,48.01
2018-03-26T10:29:22.693Z,48.24
2018-03-26T10:31:48.653Z,48.21
2018-03-26T10:34:14.734Z,48.09
2018-03-26T10:36:40.881Z,48.17
2018-03-26T10:39:06.914Z,48.10
2018-03-26T10:41:32.873Z,48.11
2018-03-26T10:43:58.823Z,48.03
2018-03-26T10:46:24.785Z,47.96
2018-03-26T10:48:50.729Z,48.19
2018-03-26T10:51:16.702Z,47.68
2018-03-26T10:53:42.859Z,48.61
2018-03-26T10:56:08.818Z,48.15
2018-03-26T10:58:34.777Z,48.10
2018-03-26T11:01:00.734Z,47.84
2018-03-26T11:03:26.721Z,48.18
2018-03-26T11:05:52.791Z,48.26
2018-03-26T11:08:18.888Z,48.25
2018-03-26T11:10:44.851Z,48.18
2018-03-26T11:13:10.823Z,48.28
2018-03-26T11:15:36.785Z,48.44
2018-03-26T11:18:02.737Z,48.12
2018-03-26T11:20:28.680Z,48.09
2018-03-26T11:22:54.622Z,47.97
2018-03-26T11:25:20.565Z,47.80
2018-03-26T11:27:46.542Z,47.68
2018-03-26T11:30:12.517Z,47.79
2018-03-26T11:32:38.474Z,47.97
2018-03-26T11:35:04.437Z,47.84
2018-03-26T11:37:30.417Z,47.54
2018-03-26T11:39:56.354Z,47.75
2018-03-26T11:42:22.298Z,47.76
2018-03-26T11:44:48.245Z,47.93
2018-03-26T11:47:14.185Z,48.22
2018-03-26T11:49:40.169Z,48.10
2018-03-26T11:52:06.154Z,48.04
2018-03-26T11:54:32.117Z,47.87
2018-03-26T11:56:58.065Z,47.93
2018-03-26T11:59:24.068Z,47.84
2018-03-26T12:01:50.007Z,47.95
2018-03-26T12:04:15.946Z,48.00
2018-03-26T12:06:41.930Z,48.05
2018-03-26T12:09:07.885Z,48.06
2018-03-26T12:11:33.918Z,48.06
2018-03-26T12:13:59.934Z,48.14
2018-03-26T12:16:25.818Z,48.24
2018-03-26T12:18:51.780Z,48.17
2018-03-26T12:21:17.738Z,49.16
2018-03-26T12:23:43.679Z,48.27
2018-03-26T12:26:09.646Z,48.06
2018-03-26T12:28:35.626Z,47.79
2018-03-26T12:31:01.577Z,47.21
2018-03-26T12:33:27.515Z,47.43
2018-03-26T12:35:53.454Z,47.43
2018-03-26T12:38:19.398Z,47.65
2018-03-26T12:40:45.458Z,46.04
2018-03-26T12:43:11.402Z,44.85
2018-03-26T12:45:37.360Z,44.90
2018-03-26T12:48:03.342Z,44.28
2018-03-26T12:50:29.382Z,43.76
2018-03-26T12:52:55.338Z,46.13
2018-03-26T12:55:21.321Z,44.08
2018-03-26T12:57:47.273Z,44.71
2018-03-26T13:00:13.214Z,43.13
2018-03-26T13:02:39.177Z,42.58
2018-03-26T13:05:05.115Z,42.23
2018-03-26T13:07:31.060Z,41.90
2018-03-26T13:09:57.013Z,41.62
2018-03-26T13:12:22.995Z,41.45
2018-03-26T13:14:48.940Z,41.75
2018-03-26T13:17:14.878Z,41.34
2018-03-26T13:19:40.847Z,41.67
2018-03-26T13:22:06.830Z,41.63
2018-03-26T13:24:32.828Z,41.10
2018-03-26T13:26:58.773Z,41.29
2018-03-26T13:29:24.727Z,41.98
2018-03-26T13:31:50.665Z,41.16
2018-03-26T13:34:16.650Z,40.47
2018-03-26T13:36:42.589Z,40.69
2018-03-26T13:39:08.535Z,40.23
2018-03-26T13:41:34.495Z,40.77
2018-03-26T13:44:00.453Z,40.07
2018-03-26T13:46:26.462Z,39.83
2018-03-26T13:48:52.404Z,39.62
2018-03-26T13:51:18.350Z,40.60
2018-03-26T13:53:44.304Z,39.90
2018-03-26T13:56:10.306Z,39.68
2018-03-26T13:58:36.314Z,39.96
2018-03-26T14:01:02.242Z,39.37
2018-03-26T14:03:28.183Z,40.04
2018-03-26T14:05:54.149Z,39.59
2018-03-26T14:08:20.126Z,39.43
2018-03-26T14:10:46.098Z,38.89
2018-03-26T14:13:12.049Z,39.80
2018-03-26T14:15:38.047Z,38.82
2018-03-26T14:18:03.986Z,38.09
2018-03-26T14:20:29.990Z,38.99
2018-03-26T14:22:55.938Z,38.83
2018-03-26T14:25:21.926Z,38.68
2018-03-26T14:27:47.973Z,38.61
2018-03-26T14:30:13.931Z,37.97
2018-03-26T14:32:39.939Z,38.19
2018-03-26T14:35:06.009Z,38.73
2018-03-26T14:37:31.974Z,37.81
2018-03-26T14:39:57.920Z,37.82
2018-03-26T14:42:23.894Z,37.80
2018-03-26T14:44:49.830Z,38.15
2018-03-26T14:47:15.805Z,37.95
2018-03-26T14:49:41.757Z,38.97
2018-03-26T14:52:07.734Z,38.86
2018-03-26T14:54:33.766Z,37.83
2018-03-26T14:56:59.801Z,37.13
2018-03-26T14:59:25.845Z,38.17
2018-03-26T15:01:51.870Z,37.89
2018-03-26T15:04:17.889Z,37.44
2018-03-26T15:06:43.826Z,37.51
2018-03-26T15:09:09.848Z,38.92
2018-03-26T15:11:35.790Z,37.69
2018-03-26T15:14:01.753Z,37.37
2018-03-26T15:16:27.702Z,38.68
2018-03-26T15:18:54.088Z,38.47
2018-03-26T15:21:20.038Z,38.30
2018-03-26T15:23:46.004Z,38.89
2018-03-26T15:26:11.989Z,39.61
2018-03-26T15:28:37.933Z,39.99
2018-03-26T15:31:03.908Z,40.33
2018-03-26T15:33:29.844Z,40.93
2018-03-26T15:35:55.814Z,41.09
2018-03-26T15:38:21.766Z,41.17
2018-03-26T15:40:47.721Z,41.47
2018-03-26T15:43:13.741Z,41.65
2018-03-26T15:45:39.677Z,41.50
2018-03-26T15:48:05.722Z,41.93
2018-03-26T15:50:31.730Z,41.95
2018-03-26T15:52:57.682Z,41.90
2018-03-26T15:55:23.655Z,41.95
2018-03-26T15:57:49.595Z,42.11
2018-03-26T16:00:15.552Z,42.53
2018-03-26T16:02:41.506Z,42.20
2018-03-26T16:05:07.478Z,42.49
2018-03-26T16:07:33.523Z,42.62
2018-03-26T16:09:59.503Z,42.45
2018-03-26T16:12:25.469Z,43.16
2018-03-26T16:14:51.410Z,43.02
2018-03-26T16:17:17.360Z,43.06
2018-03-26T16:19:43.318Z,43.25
2018-03-26T16:22:09.275Z,43.24
2018-03-26T16:24:35.239Z,43.23
2018-03-26T16:27:01.216Z,43.39
2018-03-26T16:29:27.146Z,43.60
2018-03-26T16:31:53.265Z,43.52
2018-03-26T16:34:19.205Z,43.49
2018-03-26T16:36:45.260Z,43.75
2018-03-26T16:39:11.305Z,43.60
2018-03-26T16:41:37.250Z,43.90
2018-03-26T16:44:03.194Z,43.81
2018-03-26T16:46:29.163Z,43.90
2018-03-26T16:48:55.145Z,44.20
2018-03-26T16:51:21.078Z,44.13
2018-03-26T16:53:47.019Z,44.46
2018-03-26T16:56:12.962Z,44.49
2018-03-26T16:58:38.905Z,44.60
2018-03-26T17:01:04.877Z,44.67
2018-03-26T17:03:30.825Z,44.54
2018-03-26T17:05:56.783Z,44.64
2018-03-26T17:08:22.762Z,44.49
2018-03-26T17:10:48.784Z,44.42
2018-03-26T17:13:14.706Z,44.62
2018-03-26T17:15:40.655Z,44.72
2018-03-26T17:18:06.593Z,44.63
2018-03-26T17:20:32.542Z,44.71
2018-03-26T17:22:58.505Z,44.78
2018-03-26T17:25:24.472Z,44.63
2018-03-26T17:27:50.410Z,44.53
2018-03-26T17:30:16.409Z,44.61
2018-03-26T17:32:42.358Z,44.98
2018-03-26T17:35:08.319Z,44.85
2018-03-26T17:37:34.257Z,44.72
2018-03-26T17:40:00.210Z,44.99
2018-03-26T17:42:26.172Z,45.01
2018-03-26T17:44:52.142Z,45.05
2018-03-26T17:47:18.110Z,45.30
2018-03-26T17:49:44.067Z,45.23
2018-03-26T17:52:10.006Z,45.33
2018-03-26T17:54:36.051Z,45.34
2018-03-26T17:57:02.019Z,45.32
2018-03-26T17:59:27.973Z,45.19
2018-03-26T18:01:53.926Z,45.35
2018-03-26T18:04:19.886Z,45.56
2018-03-26T18:06:45.825Z,45.44
2018-03-26T18:09:11.801Z,45.41
2018-03-26T18:11:37.747Z,45.27
2018-03-26T18:14:03.715Z,45.16
2018-03-26T18:16:29.706Z,45.14
2018-03-26T18:18:55.673Z,45.31
2018-03-26T18:21:21.646Z,45.33
2018-03-26T18:23:47.598Z,45.26
2018-03-26T18:26:13.558Z,45.45
2018-03-26T18:28:39.506Z,45.40
2018-03-26T18:31:05.466Z,45.60
2018-03-26T18:33:31.479Z,45.55
2018-03-26T18:35:57.410Z,45.75
2018-03-26T18:38:23.361Z,45.54
2018-03-26T18:40:49.320Z,45.79
2018-03-26T18:43:15.263Z,45.43
2018-03-26T18:45:41.221Z,45.56
2018-03-26T18:48:07.187Z,45.64
2018-03-26T18:50:33.137Z,45.65
2018-03-26T18:52:59.109Z,45.62
2018-03-26T18:55:25.079Z,45.88
2018-03-26T18:57:51.071Z,45.68
2018-03-26T19:00:17.073Z,45.70
2018-03-26T19:02:43.101Z,45.71
2018-03-26T19:05:09.032Z,45.86
2018-03-26T19:07:34.991Z,45.80
2018-03-26T19:10:00.992Z,45.81
2018-03-26T19:12:26.951Z,45.90
2018-03-26T19:14:52.927Z,45.77
2018-03-26T19:17:18.873Z,45.86
2018-03-26T19:19:44.867Z,45.90
2018-03-26T19:22:10.814Z,46.05
2018-03-26T19:24:36.781Z,45.85
2018-03-26T19:27:02.734Z,46.19
2018-03-26T19:29:28.691Z,45.87
2018-03-26T19:31:54.656Z,45.88
2018-03-26T19:34:20.634Z,45.90
2018-03-26T19:36:46.701Z,47.25
2018-03-26T19:39:12.667Z,46.32
2018-03-26T19:41:38.711Z,46.22
2018-03-26T19:44:04.666Z,46.06
2018-03-26T19:46:30.609Z,46.19
2018-03-26T19:48:56.666Z,46.05
2018-03-26T19:51:22.620Z,46.23
2018-03-26T19:53:48.562Z,46.28
2018-03-26T19:56:14.501Z,46.34
2018-03-26T19:58:40.445Z,46.17
2018-03-26T20:01:06.415Z,46.17
2018-03-26T20:03:32.386Z,46.28
2018-03-26T20:05:58.344Z,46.22
2018-03-26T20:08:24.317Z,46.21
2018-03-26T20:10:50.272Z,46.30
2018-03-26T20:13:16.331Z,46.39
2018-03-26T20:15:42.297Z,46.47
2018-03-26T20:18:08.265Z,46.53
2018-03-26T20:20:34.238Z,46.73
2018-03-26T20:23:00.226Z,46.67
2018-03-26T20:25:26.190Z,46.75
2018-03-26T20:27:52.158Z,46.70
2018-03-26T20:30:18.110Z,46.79
2018-03-26T20:32:44.102Z,46.66
2018-03-26T20:35:10.047Z,46.79
2018-03-26T20:37:36.010Z,46.85
2018-03-26T20:40:01.998Z,46.85
2018-03-26T20:42:27.937Z,46.81
2018-03-26T20:44:53.880Z,46.84
2018-03-26T20:47:19.849Z,46.85
2018-03-26T20:49:45.816Z,46.83
2018-03-26T20:52:11.755Z,46.87
2018-03-26T20:54:37.697Z,47.03
2018-03-26T20:57:03.639Z,46.99
2018-03-26T20:59:29.686Z,46.87
2018-03-26T21:01:55.631Z,46.89
2018-03-26T21:04:21.565Z,46.75
2018-03-26T21:06:47.568Z,46.65
2018-03-26T21:09:13.551Z,46.85
2018-03-26T21:11:39.521Z,47.32
2018-03-26T21:14:05.681Z,47.37
2018-03-26T21:16:31.676Z,47.12
2018-03-26T21:18:57.622Z,46.99
2018-03-26T21:21:23.603Z,47.07
2018-03-26T21:23:49.642Z,46.98
2018-03-26T21:26:15.609Z,47.12
2018-03-26T21:28:41.565Z,47.27
2018-03-26T21:31:07.662Z,47.27
2018-03-26T21:33:33.629Z,47.86
2018-03-26T21:35:59.617Z,47.81
2018-03-26T21:38:25.573Z,47.53
2018-03-26T21:40:51.531Z,47.42
2018-03-26T21:43:17.481Z,47.52
2018-03-26T21:45:43.465Z,47.50
2018-03-26T21:48:09.497Z,47.56
2018-03-26T21:50:35.453Z,47.76
2018-03-26T21:53:01.395Z,47.79
2018-03-26T21:55:27.334Z,47.62
2018-03-26T21:57:53.270Z,47.78
2018-03-26T22:00:19.213Z,47.81
2018-03-26T22:02:45.170Z,47.63
2018-03-26T22:05:11.146Z,47.86
2018-03-26T22:07:37.127Z,47.84
2018-03-26T22:10:03.154Z,47.75
2018-03-26T22:12:29.101Z,47.84
2018-03-26T22:14:55.067Z,48.05
2018-03-26T22:17:21.049Z,48.16
2018-03-26T22:19:47.018Z,47.98
2018-03-26T22:22:12.974Z,47.65
2018-03-26T22:24:38.945Z,47.99
2018-03-26T22:27:04.897Z,48.01
2018-03-26T22:29:30.862Z,48.01
2018-03-26T22:31:56.908Z,47.87
2018-03-26T22:34:22.883Z,48.14
2018-03-26T22:36:48.817Z,48.14
2018-03-26T22:39:14.766Z,48.23
2018-03-26T22:41:40.726Z,48.24
2018-03-26T22:44:06.687Z,48.30
2018-03-26T22:46:32.654Z,48.20
2018-03-26T22:48:58.598Z,48.12
2018-03-26T22:51:24.569Z,48.05
2018-03-26T22:53:50.526Z,48.11
2018-03-26T22:56:16.460Z,47.94
2018-03-26T22:58:42.410Z,48.14
2018-03-26T23:01:08.353Z,48.03
2018-03-26T23:03:34.314Z,48.44
2018-03-26T23:06:00.256Z,48.17
2018-03-26T23:08:26.310Z,48.30
2018-03-26T23:10:52.253Z,48.41
2018-03-26T23:13:18.266Z,47.98
2018-03-26T23:15:44.307Z,48.31
2018-03-26T23:18:10.313Z,48.17
2018-03-26T23:20:36.365Z,48.29
2018-03-26T23:23:02.338Z,48.39
2018-03-26T23:25:28.279Z,49.70
2018-03-26T23:27:54.223Z,48.68
2018-03-26T23:30:20.206Z,48.37
2018-03-26T23:32:46.137Z,48.70
2018-03-26T23:35:13.869Z,48.29
2018-03-26T23:37:39.821Z,48.59
2018-03-26T23:40:05.765Z,48.50
2018-03-26T23:42:31.759Z,48.54
2018-03-26T23:44:57.718Z,48.53
2018-03-26T23:47:23.661Z,48.59
2018-03-26T23:49:49.630Z,48.39
2018-03-26T23:52:15.573Z,48.51
2018-03-26T23:54:41.537Z,48.69
2018-03-26T23:57:07.495Z,48.61
2018-03-26T23:59:33.442Z,48.50
